Terminal Aerodrome Forecast
Issued by NWS

Current Version | Previous Version | Graphics & Text | Print | Product List | Glossary Off
Versions: 1 2 3 4 5 6 7 8 9 10 11 12 13 14 15 16 17 18 19 20 21 22 23 24 25 26 27 28 29

000
FTUS41 KILN 291133
TAFLUK
TAF
KLUK 291133Z 2912/3012 00000KT 3SM BR SCT012
     FM291300 VRB03KT P6SM SCT025
     FM291600 25004KT P6SM VCTS BKN040CB BKN150
     FM300400 00000KT P6SM SCT150
     FM300600 00000KT 4SM BR SCT150=

USA.gov is the U.S. government's official web portal to all federal, state and local government web resources and services.